sensor_id;sensor_type;location;lat;lon;timestamp;P1;durP1;ratioP1;P2;durP2;ratioP2
36105;SDS011;22159;55.736;38.048;2023-02-11T00:00:59;3.05;;;2.50;;
36105;SDS011;22159;55.736;38.048;2023-02-11T00:03:25;2.60;;;2.40;;
36105;SDS011;22159;55.736;38.048;2023-02-11T00:05:58;2.92;;;2.47;;
36105;SDS011;22159;55.736;38.048;2023-02-11T00:08:24;3.05;;;2.42;;
36105;SDS011;22159;55.736;38.048;2023-02-11T00:10:51;3.15;;;2.40;;
36105;SDS011;22159;55.736;38.048;2023-02-11T00:13:17;3.17;;;2.42;;
36105;SDS011;22159;55.736;38.048;2023-02-11T00:15:43;3.50;;;2.28;;
36105;SDS011;22159;55.736;38.048;2023-02-11T00:18:09;3.53;;;2.75;;
36105;SDS011;22159;55.736;38.048;2023-02-11T00:20:37;3.60;;;2.63;;
36105;SDS011;22159;55.736;38.048;2023-02-11T00:23:03;3.03;;;2.20;;
36105;SDS011;22159;55.736;38.048;2023-02-11T00:25:29;3.17;;;2.53;;
36105;SDS011;22159;55.736;38.048;2023-02-11T00:27:56;2.58;;;2.38;;
36105;SDS011;22159;55.736;38.048;2023-02-11T00:30:23;2.97;;;2.28;;
36105;SDS011;22159;55.736;38.048;2023-02-11T00:32:49;2.65;;;2.30;;
36105;SDS011;22159;55.736;38.048;2023-02-11T00:35:15;3.10;;;2.40;;
36105;SDS011;22159;55.736;38.048;2023-02-11T00:37:41;2.92;;;2.55;;
36105;SDS011;22159;55.736;38.048;2023-02-11T00:40:07;2.55;;;2.30;;
36105;SDS011;22159;55.736;38.048;2023-02-11T00:42:33;2.30;;;2.10;;
36105;SDS011;22159;55.736;38.048;2023-02-11T00:45:00;3.60;;;2.60;;
36105;SDS011;22159;55.736;38.048;2023-02-11T00:47:26;3.03;;;2.47;;
36105;SDS011;22159;55.736;38.048;2023-02-11T00:49:52;2.92;;;2.65;;
36105;SDS011;22159;55.736;38.048;2023-02-11T00:52:18;3.53;;;2.50;;
36105;SDS011;22159;55.736;38.048;2023-02-11T00:54:44;2.92;;;2.40;;
36105;SDS011;22159;55.736;38.048;2023-02-11T00:57:10;2.45;;;2.25;;
36105;SDS011;22159;55.736;38.048;2023-02-11T00:59:36;2.35;;;2.15;;
36105;SDS011;22159;55.736;38.048;2023-02-11T01:02:02;2.33;;;2.13;;
36105;SDS011;22159;55.736;38.048;2023-02-11T01:04:28;2.50;;;2.30;;
36105;SDS011;22159;55.736;38.048;2023-02-11T01:06:54;3.20;;;2.40;;
36105;SDS011;22159;55.736;38.048;2023-02-11T01:09:20;2.53;;;2.20;;
36105;SDS011;22159;55.736;38.048;2023-02-11T01:11:47;2.83;;;2.10;;
36105;SDS011;22159;55.736;38.048;2023-02-11T01:14:13;3.67;;;2.13;;
36105;SDS011;22159;55.736;38.048;2023-02-11T01:16:39;2.20;;;2.00;;
36105;SDS011;22159;55.736;38.048;2023-02-11T01:19:05;2.47;;;2.28;;
36105;SDS011;22159;55.736;38.048;2023-02-11T01:21:31;2.33;;;2.13;;
36105;SDS011;22159;55.736;38.048;2023-02-11T01:23:57;2.42;;;2.22;;
36105;SDS011;22159;55.736;38.048;2023-02-11T01:26:23;3.75;;;2.30;;
36105;SDS011;22159;55.736;38.048;2023-02-11T01:28:49;2.78;;;2.25;;
36105;SDS011;22159;55.736;38.048;2023-02-11T01:31:15;2.83;;;2.40;;
36105;SDS011;22159;55.736;38.048;2023-02-11T01:33:41;2.35;;;2.08;;
36105;SDS011;22159;55.736;38.048;2023-02-11T01:36:07;2.67;;;2.20;;
36105;SDS011;22159;55.736;38.048;2023-02-11T01:38:34;3.03;;;2.22;;
36105;SDS011;22159;55.736;38.048;2023-02-11T01:41:02;2.70;;;2.17;;
36105;SDS011;22159;55.736;38.048;2023-02-11T01:43:36;3.00;;;2.10;;
36105;SDS011;22159;55.736;38.048;2023-02-11T01:48:46;3.17;;;2.17;;
36105;SDS011;22159;55.736;38.048;2023-02-11T01:53:39;2.67;;;2.13;;
36105;SDS011;22159;55.736;38.048;2023-02-11T01:56:25;3.40;;;2.60;;
36105;SDS011;22159;55.736;38.048;2023-02-11T01:59:12;3.33;;;2.20;;
36105;SDS011;22159;55.736;38.048;2023-02-11T02:01:39;3.40;;;2.25;;
36105;SDS011;22159;55.736;38.048;2023-02-11T02:04:06;2.60;;;2.38;;
36105;SDS011;22159;55.736;38.048;2023-02-11T02:06:49;3.15;;;2.38;;
36105;SDS011;22159;55.736;38.048;2023-02-11T02:09:19;2.75;;;2.30;;
36105;SDS011;22159;55.736;38.048;2023-02-11T02:11:46;2.65;;;2.10;;
36105;SDS011;22159;55.736;38.048;2023-02-11T02:14:13;3.30;;;2.45;;
36105;SDS011;22159;55.736;38.048;2023-02-11T02:16:39;3.45;;;2.13;;
36105;SDS011;22159;55.736;38.048;2023-02-11T02:27:24;3.55;;;2.50;;
36105;SDS011;22159;55.736;38.048;2023-02-11T02:37:50;5.00;;;2.45;;
36105;SDS011;22159;55.736;38.048;2023-02-11T02:40:19;2.35;;;2.13;;
36105;SDS011;22159;55.736;38.048;2023-02-11T02:42:47;3.40;;;2.20;;
36105;SDS011;22159;55.736;38.048;2023-02-11T02:45:14;5.38;;;2.25;;
36105;SDS011;22159;55.736;38.048;2023-02-11T02:47:40;3.20;;;2.20;;
36105;SDS011;22159;55.736;38.048;2023-02-11T02:50:06;2.65;;;2.13;;
36105;SDS011;22159;55.736;38.048;2023-02-11T02:57:47;3.63;;;2.10;;
36105;SDS011;22159;55.736;38.048;2023-02-11T03:08:06;3.97;;;2.33;;
36105;SDS011;22159;55.736;38.048;2023-02-11T03:10:35;3.00;;;2.05;;
36105;SDS011;22159;55.736;38.048;2023-02-11T03:13:02;3.75;;;2.55;;
36105;SDS011;22159;55.736;38.048;2023-02-11T03:15:29;4.05;;;2.33;;
36105;SDS011;22159;55.736;38.048;2023-02-11T03:17:57;2.35;;;1.98;;
36105;SDS011;22159;55.736;38.048;2023-02-11T03:20:24;2.65;;;2.10;;
36105;SDS011;22159;55.736;38.048;2023-02-11T03:22:57;2.47;;;2.05;;
36105;SDS011;22159;55.736;38.048;2023-02-11T03:25:27;2.33;;;1.90;;
36105;SDS011;22159;55.736;38.048;2023-02-11T03:27:56;2.20;;;1.60;;
36105;SDS011;22159;55.736;38.048;2023-02-11T03:30:26;2.58;;;1.92;;
36105;SDS011;22159;55.736;38.048;2023-02-11T03:32:57;2.55;;;1.85;;
36105;SDS011;22159;55.736;38.048;2023-02-11T03:37:56;4.20;;;2.17;;
36105;SDS011;22159;55.736;38.048;2023-02-11T03:40:25;3.08;;;2.05;;
36105;SDS011;22159;55.736;38.048;2023-02-11T03:42:53;2.30;;;1.77;;
36105;SDS011;22159;55.736;38.048;2023-02-11T03:45:20;2.13;;;1.70;;
36105;SDS011;22159;55.736;38.048;2023-02-11T03:47:54;2.72;;;1.88;;
36105;SDS011;22159;55.736;38.048;2023-02-11T03:50:21;2.15;;;1.80;;
36105;SDS011;22159;55.736;38.048;2023-02-11T03:52:48;2.40;;;2.17;;
36105;SDS011;22159;55.736;38.048;2023-02-11T03:55:15;2.53;;;1.90;;
36105;SDS011;22159;55.736;38.048;2023-02-11T03:57:42;2.08;;;1.83;;
36105;SDS011;22159;55.736;38.048;2023-02-11T04:00:09;3.22;;;1.85;;
36105;SDS011;22159;55.736;38.048;2023-02-11T04:02:35;3.53;;;1.90;;
36105;SDS011;22159;55.736;38.048;2023-02-11T04:05:05;2.28;;;1.83;;
36105;SDS011;22159;55.736;38.048;2023-02-11T04:07:31;2.58;;;1.80;;
36105;SDS011;22159;55.736;38.048;2023-02-11T04:09:57;2.20;;;1.80;;
36105;SDS011;22159;55.736;38.048;2023-02-11T04:12:23;2.50;;;1.85;;
36105;SDS011;22159;55.736;38.048;2023-02-11T04:14:49;1.95;;;1.60;;
36105;SDS011;22159;55.736;38.048;2023-02-11T04:17:15;2.88;;;1.60;;
36105;SDS011;22159;55.736;38.048;2023-02-11T04:19:42;2.55;;;1.73;;
36105;SDS011;22159;55.736;38.048;2023-02-11T04:22:08;2.35;;;1.83;;
36105;SDS011;22159;55.736;38.048;2023-02-11T04:24:34;2.13;;;1.60;;
36105;SDS011;22159;55.736;38.048;2023-02-11T04:27:00;3.17;;;2.13;;
36105;SDS011;22159;55.736;38.048;2023-02-11T04:29:26;2.17;;;1.70;;
36105;SDS011;22159;55.736;38.048;2023-02-11T04:31:53;3.15;;;1.85;;
36105;SDS011;22159;55.736;38.048;2023-02-11T04:34:19;2.28;;;1.70;;
36105;SDS011;22159;55.736;38.048;2023-02-11T04:36:45;1.85;;;1.48;;
36105;SDS011;22159;55.736;38.048;2023-02-11T04:39:11;3.03;;;1.77;;
36105;SDS011;22159;55.736;38.048;2023-02-11T04:41:37;2.25;;;1.88;;
36105;SDS011;22159;55.736;38.048;2023-02-11T04:44:03;2.35;;;1.65;;
36105;SDS011;22159;55.736;38.048;2023-02-11T04:46:29;2.22;;;1.60;;
36105;SDS011;22159;55.736;38.048;2023-02-11T04:48:55;2.75;;;1.60;;
36105;SDS011;22159;55.736;38.048;2023-02-11T04:51:22;1.83;;;1.38;;
36105;SDS011;22159;55.736;38.048;2023-02-11T04:53:48;3.03;;;1.73;;
36105;SDS011;22159;55.736;38.048;2023-02-11T04:56:14;2.83;;;1.70;;
36105;SDS011;22159;55.736;38.048;2023-02-11T04:58:40;3.10;;;1.50;;
36105;SDS011;22159;55.736;38.048;2023-02-11T05:01:10;1.85;;;1.58;;
36105;SDS011;22159;55.736;38.048;2023-02-11T05:03:37;2.90;;;1.50;;
36105;SDS011;22159;55.736;38.048;2023-02-11T05:06:03;2.75;;;1.75;;
36105;SDS011;22159;55.736;38.048;2023-02-11T05:08:29;3.35;;;1.70;;
36105;SDS011;22159;55.736;38.048;2023-02-11T05:10:56;2.90;;;1.60;;
36105;SDS011;22159;55.736;38.048;2023-02-11T05:13:22;2.63;;;1.67;;
36105;SDS011;22159;55.736;38.048;2023-02-11T05:15:48;2.20;;;1.77;;
36105;SDS011;22159;55.736;38.048;2023-02-11T05:18:14;2.08;;;1.45;;
36105;SDS011;22159;55.736;38.048;2023-02-11T05:20:43;2.00;;;1.50;;
36105;SDS011;22159;55.736;38.048;2023-02-11T05:23:09;2.13;;;1.48;;
36105;SDS011;22159;55.736;38.048;2023-02-11T05:25:35;3.88;;;1.70;;
36105;SDS011;22159;55.736;38.048;2023-02-11T05:28:01;2.10;;;1.30;;
36105;SDS011;22159;55.736;38.048;2023-02-11T05:30:27;2.05;;;1.70;;
36105;SDS011;22159;55.736;38.048;2023-02-11T05:32:53;3.08;;;1.52;;
36105;SDS011;22159;55.736;38.048;2023-02-11T05:35:19;1.67;;;1.27;;
36105;SDS011;22159;55.736;38.048;2023-02-11T05:37:46;4.20;;;1.40;;
36105;SDS011;22159;55.736;38.048;2023-02-11T05:40:12;3.28;;;1.27;;
36105;SDS011;22159;55.736;38.048;2023-02-11T05:42:38;3.25;;;1.45;;
36105;SDS011;22159;55.736;38.048;2023-02-11T05:45:04;3.10;;;1.23;;
36105;SDS011;22159;55.736;38.048;2023-02-11T05:47:30;2.20;;;1.15;;
36105;SDS011;22159;55.736;38.048;2023-02-11T05:49:56;2.03;;;1.40;;
36105;SDS011;22159;55.736;38.048;2023-02-11T05:52:22;3.22;;;1.38;;
36105;SDS011;22159;55.736;38.048;2023-02-11T05:54:48;2.78;;;1.35;;
36105;SDS011;22159;55.736;38.048;2023-02-11T05:57:14;3.15;;;1.40;;
36105;SDS011;22159;55.736;38.048;2023-02-11T05:59:41;1.50;;;1.40;;
36105;SDS011;22159;55.736;38.048;2023-02-11T06:02:07;1.48;;;1.38;;
36105;SDS011;22159;55.736;38.048;2023-02-11T06:04:34;2.65;;;1.48;;
36105;SDS011;22159;55.736;38.048;2023-02-11T06:07:00;1.38;;;1.10;;
36105;SDS011;22159;55.736;38.048;2023-02-11T06:09:26;2.17;;;1.23;;
36105;SDS011;22159;55.736;38.048;2023-02-11T06:11:52;1.33;;;1.10;;
36105;SDS011;22159;55.736;38.048;2023-02-11T06:14:19;3.25;;;1.45;;
36105;SDS011;22159;55.736;38.048;2023-02-11T06:16:45;1.90;;;1.33;;
36105;SDS011;22159;55.736;38.048;2023-02-11T06:19:11;2.00;;;1.30;;
36105;SDS011;22159;55.736;38.048;2023-02-11T06:21:37;1.50;;;1.23;;
36105;SDS011;22159;55.736;38.048;2023-02-11T06:24:04;1.50;;;1.30;;
36105;SDS011;22159;55.736;38.048;2023-02-11T06:26:30;2.03;;;1.30;;
36105;SDS011;22159;55.736;38.048;2023-02-11T06:28:58;3.60;;;1.20;;
36105;SDS011;22159;55.736;38.048;2023-02-11T06:31:25;2.30;;;1.35;;
36105;SDS011;22159;55.736;38.048;2023-02-11T06:33:51;1.08;;;0.95;;
36105;SDS011;22159;55.736;38.048;2023-02-11T06:36:19;1.83;;;1.20;;
36105;SDS011;22159;55.736;38.048;2023-02-11T06:38:46;1.70;;;1.05;;
36105;SDS011;22159;55.736;38.048;2023-02-11T06:41:13;1.70;;;1.30;;
36105;SDS011;22159;55.736;38.048;2023-02-11T06:43:40;1.15;;;1.02;;
36105;SDS011;22159;55.736;38.048;2023-02-11T06:46:06;1.92;;;1.42;;
36105;SDS011;22159;55.736;38.048;2023-02-11T06:48:32;1.52;;;1.17;;
36105;SDS011;22159;55.736;38.048;2023-02-11T06:51:06;2.20;;;1.50;;
36105;SDS011;22159;55.736;38.048;2023-02-11T06:53:34;1.23;;;1.10;;
36105;SDS011;22159;55.736;38.048;2023-02-11T06:56:01;2.58;;;1.08;;
36105;SDS011;22159;55.736;38.048;2023-02-11T06:58:27;1.63;;;1.38;;
36105;SDS011;22159;55.736;38.048;2023-02-11T07:00:53;2.00;;;1.50;;
36105;SDS011;22159;55.736;38.048;2023-02-11T07:03:19;1.20;;;1.02;;
36105;SDS011;22159;55.736;38.048;2023-02-11T07:05:45;2.58;;;1.30;;
36105;SDS011;22159;55.736;38.048;2023-02-11T07:08:11;3.17;;;1.20;;
36105;SDS011;22159;55.736;38.048;2023-02-11T07:10:37;2.63;;;1.20;;
36105;SDS011;22159;55.736;38.048;2023-02-11T07:13:03;2.95;;;1.23;;
36105;SDS011;22159;55.736;38.048;2023-02-11T07:15:30;1.33;;;0.98;;
36105;SDS011;22159;55.736;38.048;2023-02-11T07:17:56;2.63;;;1.25;;
36105;SDS011;22159;55.736;38.048;2023-02-11T07:20:22;1.40;;;1.00;;
36105;SDS011;22159;55.736;38.048;2023-02-11T07:22:48;3.15;;;0.98;;
36105;SDS011;22159;55.736;38.048;2023-02-11T07:25:14;1.58;;;1.20;;
36105;SDS011;22159;55.736;38.048;2023-02-11T07:27:40;2.08;;;1.10;;
36105;SDS011;22159;55.736;38.048;2023-02-11T07:30:06;3.55;;;1.30;;
36105;SDS011;22159;55.736;38.048;2023-02-11T07:32:32;1.73;;;1.00;;
36105;SDS011;22159;55.736;38.048;2023-02-11T07:34:58;2.10;;;1.00;;
36105;SDS011;22159;55.736;38.048;2023-02-11T07:37:24;3.55;;;1.10;;
36105;SDS011;22159;55.736;38.048;2023-02-11T07:39:50;1.25;;;0.90;;
36105;SDS011;22159;55.736;38.048;2023-02-11T07:42:16;1.55;;;1.00;;
36105;SDS011;22159;55.736;38.048;2023-02-11T07:44:42;3.00;;;1.20;;
36105;SDS011;22159;55.736;38.048;2023-02-11T07:47:08;1.33;;;0.93;;
36105;SDS011;22159;55.736;38.048;2023-02-11T07:49:35;2.67;;;1.20;;
36105;SDS011;22159;55.736;38.048;2023-02-11T07:52:01;1.38;;;1.10;;
36105;SDS011;22159;55.736;38.048;2023-02-11T07:54:27;1.23;;;1.10;;
36105;SDS011;22159;55.736;38.048;2023-02-11T07:56:53;2.20;;;1.05;;
36105;SDS011;22159;55.736;38.048;2023-02-11T07:59:19;1.70;;;1.17;;
36105;SDS011;22159;55.736;38.048;2023-02-11T08:01:45;2.13;;;1.20;;
36105;SDS011;22159;55.736;38.048;2023-02-11T08:04:11;1.75;;;1.00;;
36105;SDS011;22159;55.736;38.048;2023-02-11T08:06:39;2.17;;;1.38;;
36105;SDS011;22159;55.736;38.048;2023-02-11T08:09:06;1.80;;;1.10;;
36105;SDS011;22159;55.736;38.048;2023-02-11T08:11:33;2.15;;;0.80;;
36105;SDS011;22159;55.736;38.048;2023-02-11T08:14:00;1.52;;;1.10;;
36105;SDS011;22159;55.736;38.048;2023-02-11T08:16:27;2.95;;;1.13;;
36105;SDS011;22159;55.736;38.048;2023-02-11T08:18:57;3.60;;;1.27;;
36105;SDS011;22159;55.736;38.048;2023-02-11T08:21:24;1.77;;;1.48;;
36105;SDS011;22159;55.736;38.048;2023-02-11T08:23:50;1.88;;;1.27;;
36105;SDS011;22159;55.736;38.048;2023-02-11T08:26:17;2.90;;;1.10;;
36105;SDS011;22159;55.736;38.048;2023-02-11T08:28:44;1.73;;;1.00;;
36105;SDS011;22159;55.736;38.048;2023-02-11T08:31:13;2.75;;;1.35;;
36105;SDS011;22159;55.736;38.048;2023-02-11T08:33:39;2.20;;;1.35;;
36105;SDS011;22159;55.736;38.048;2023-02-11T08:36:09;2.38;;;1.13;;
36105;SDS011;22159;55.736;38.048;2023-02-11T08:38:35;1.70;;;1.20;;
36105;SDS011;22159;55.736;38.048;2023-02-11T08:41:01;3.33;;;1.20;;
36105;SDS011;22159;55.736;38.048;2023-02-11T08:43:28;1.77;;;0.95;;
36105;SDS011;22159;55.736;38.048;2023-02-11T08:45:54;1.20;;;1.10;;
36105;SDS011;22159;55.736;38.048;2023-02-11T08:48:20;1.95;;;0.95;;
36105;SDS011;22159;55.736;38.048;2023-02-11T08:50:46;1.33;;;1.15;;
36105;SDS011;22159;55.736;38.048;2023-02-11T08:53:12;1.92;;;1.23;;
36105;SDS011;22159;55.736;38.048;2023-02-11T08:55:38;2.03;;;1.08;;
36105;SDS011;22159;55.736;38.048;2023-02-11T08:58:04;1.80;;;0.93;;
36105;SDS011;22159;55.736;38.048;2023-02-11T09:00:30;1.92;;;1.15;;
36105;SDS011;22159;55.736;38.048;2023-02-11T09:02:56;1.75;;;1.00;;
36105;SDS011;22159;55.736;38.048;2023-02-11T09:05:22;1.00;;;0.90;;
36105;SDS011;22159;55.736;38.048;2023-02-11T09:07:48;1.73;;;1.17;;
36105;SDS011;22159;55.736;38.048;2023-02-11T09:10:14;2.10;;;1.20;;
36105;SDS011;22159;55.736;38.048;2023-02-11T09:12:40;1.67;;;1.15;;
36105;SDS011;22159;55.736;38.048;2023-02-11T09:15:07;2.67;;;1.13;;
36105;SDS011;22159;55.736;38.048;2023-02-11T09:17:33;1.67;;;1.10;;
36105;SDS011;22159;55.736;38.048;2023-02-11T09:19:59;1.15;;;0.88;;
36105;SDS011;22159;55.736;38.048;2023-02-11T09:22:25;2.60;;;0.98;;
36105;SDS011;22159;55.736;38.048;2023-02-11T09:24:51;2.03;;;1.20;;
36105;SDS011;22159;55.736;38.048;2023-02-11T09:27:17;1.25;;;1.15;;
36105;SDS011;22159;55.736;38.048;2023-02-11T09:29:43;3.38;;;1.42;;
36105;SDS011;22159;55.736;38.048;2023-02-11T09:32:09;2.92;;;1.00;;
36105;SDS011;22159;55.736;38.048;2023-02-11T09:34:35;2.05;;;1.00;;
36105;SDS011;22159;55.736;38.048;2023-02-11T09:37:01;2.22;;;1.08;;
36105;SDS011;22159;55.736;38.048;2023-02-11T09:39:27;2.45;;;1.30;;
36105;SDS011;22159;55.736;38.048;2023-02-11T09:44:38;3.67;;;1.13;;
36105;SDS011;22159;55.736;38.048;2023-02-11T09:47:06;2.50;;;1.30;;
36105;SDS011;22159;55.736;38.048;2023-02-11T09:49:38;3.00;;;1.23;;
36105;SDS011;22159;55.736;38.048;2023-02-11T09:52:06;3.90;;;1.58;;
36105;SDS011;22159;55.736;38.048;2023-02-11T09:54:39;6.90;;;1.17;;
36105;SDS011;22159;55.736;38.048;2023-02-11T09:57:08;7.18;;;1.60;;
36105;SDS011;22159;55.736;38.048;2023-02-11T09:59:34;7.05;;;1.63;;
36105;SDS011;22159;55.736;38.048;2023-02-11T10:02:08;4.63;;;1.20;;
36105;SDS011;22159;55.736;38.048;2023-02-11T10:10:02;4.03;;;1.50;;
36105;SDS011;22159;55.736;38.048;2023-02-11T10:15:12;8.40;;;1.77;;
36105;SDS011;22159;55.736;38.048;2023-02-11T10:22:52;2.88;;;1.00;;
36105;SDS011;22159;55.736;38.048;2023-02-11T10:25:23;5.05;;;1.50;;
36105;SDS011;22159;55.736;38.048;2023-02-11T10:27:50;3.75;;;1.40;;
36105;SDS011;22159;55.736;38.048;2023-02-11T10:30:21;6.47;;;1.58;;
36105;SDS011;22159;55.736;38.048;2023-02-11T10:32:50;5.03;;;1.40;;
36105;SDS011;22159;55.736;38.048;2023-02-11T10:35:21;5.85;;;1.98;;
36105;SDS011;22159;55.736;38.048;2023-02-11T10:37:48;5.95;;;1.50;;
36105;SDS011;22159;55.736;38.048;2023-02-11T10:40:14;5.85;;;1.50;;
36105;SDS011;22159;55.736;38.048;2023-02-11T10:42:42;4.07;;;1.35;;
36105;SDS011;22159;55.736;38.048;2023-02-11T10:45:14;4.68;;;1.50;;
36105;SDS011;22159;55.736;38.048;2023-02-11T10:47:42;3.13;;;1.40;;
36105;SDS011;22159;55.736;38.048;2023-02-11T10:50:41;3.33;;;1.55;;
36105;SDS011;22159;55.736;38.048;2023-02-11T10:55:57;4.50;;;1.30;;
36105;SDS011;22159;55.736;38.048;2023-02-11T10:58:27;8.45;;;1.77;;
36105;SDS011;22159;55.736;38.048;2023-02-11T11:00:54;2.45;;;1.23;;
36105;SDS011;22159;55.736;38.048;2023-02-11T11:05:48;4.80;;;1.60;;
36105;SDS011;22159;55.736;38.048;2023-02-11T11:08:15;2.90;;;1.17;;
36105;SDS011;22159;55.736;38.048;2023-02-11T11:10:42;3.60;;;1.30;;
36105;SDS011;22159;55.736;38.048;2023-02-11T11:18:31;4.55;;;1.42;;
36105;SDS011;22159;55.736;38.048;2023-02-11T11:20:58;3.35;;;1.38;;
36105;SDS011;22159;55.736;38.048;2023-02-11T11:23:25;2.45;;;1.40;;
36105;SDS011;22159;55.736;38.048;2023-02-11T11:28:25;3.33;;;0.90;;
36105;SDS011;22159;55.736;38.048;2023-02-11T11:30:52;4.00;;;1.42;;
36105;SDS011;22159;55.736;38.048;2023-02-11T11:33:26;2.67;;;1.20;;
36105;SDS011;22159;55.736;38.048;2023-02-11T11:35:57;2.03;;;1.10;;
36105;SDS011;22159;55.736;38.048;2023-02-11T11:38:25;3.58;;;1.38;;
36105;SDS011;22159;55.736;38.048;2023-02-11T11:43:37;2.33;;;1.00;;
36105;SDS011;22159;55.736;38.048;2023-02-11T11:46:03;3.35;;;1.20;;
36105;SDS011;22159;55.736;38.048;2023-02-11T11:48:33;2.22;;;0.85;;
36105;SDS011;22159;55.736;38.048;2023-02-11T11:51:03;2.75;;;1.10;;
36105;SDS011;22159;55.736;38.048;2023-02-11T11:56:02;2.58;;;1.33;;
36105;SDS011;22159;55.736;38.048;2023-02-11T11:58:30;2.95;;;1.05;;
36105;SDS011;22159;55.736;38.048;2023-02-11T12:01:02;2.58;;;1.23;;
36105;SDS011;22159;55.736;38.048;2023-02-11T12:09:06;2.42;;;0.95;;
36105;SDS011;22159;55.736;38.048;2023-02-11T12:14:19;2.78;;;1.10;;
36105;SDS011;22159;55.736;38.048;2023-02-11T12:19:24;1.67;;;0.90;;
36105;SDS011;22159;55.736;38.048;2023-02-11T12:24:49;2.47;;;0.90;;
36105;SDS011;22159;55.736;38.048;2023-02-11T12:45:31;3.88;;;0.98;;
36105;SDS011;22159;55.736;38.048;2023-02-11T12:55:37;3.42;;;1.50;;
36105;SDS011;22159;55.736;38.048;2023-02-11T12:58:06;2.25;;;1.20;;
36105;SDS011;22159;55.736;38.048;2023-02-11T13:00:44;2.53;;;1.08;;
36105;SDS011;22159;55.736;38.048;2023-02-11T13:03:12;2.00;;;1.15;;
36105;SDS011;22159;55.736;38.048;2023-02-11T13:05:54;1.75;;;0.98;;
36105;SDS011;22159;55.736;38.048;2023-02-11T13:10:52;2.67;;;1.10;;
36105;SDS011;22159;55.736;38.048;2023-02-11T13:13:36;3.63;;;1.13;;
36105;SDS011;22159;55.736;38.048;2023-02-11T13:16:06;2.65;;;1.20;;
36105;SDS011;22159;55.736;38.048;2023-02-11T13:18:41;1.40;;;0.95;;
36105;SDS011;22159;55.736;38.048;2023-02-11T13:28:56;2.97;;;1.10;;
36105;SDS011;22159;55.736;38.048;2023-02-11T13:31:25;3.10;;;1.00;;
36105;SDS011;22159;55.736;38.048;2023-02-11T13:33:53;4.25;;;1.30;;
36105;SDS011;22159;55.736;38.048;2023-02-11T13:36:21;1.27;;;0.70;;
36105;SDS011;22159;55.736;38.048;2023-02-11T13:39:05;2.80;;;1.00;;
36105;SDS011;22159;55.736;38.048;2023-02-11T13:41:38;1.65;;;1.02;;
36105;SDS011;22159;55.736;38.048;2023-02-11T13:44:16;1.77;;;1.20;;
36105;SDS011;22159;55.736;38.048;2023-02-11T13:49:23;2.22;;;0.95;;
36105;SDS011;22159;55.736;38.048;2023-02-11T13:51:50;2.10;;;1.20;;
36105;SDS011;22159;55.736;38.048;2023-02-11T13:54:18;3.13;;;1.02;;
36105;SDS011;22159;55.736;38.048;2023-02-11T13:57:13;3.95;;;1.25;;
36105;SDS011;22159;55.736;38.048;2023-02-11T14:02:03;1.35;;;0.90;;
36105;SDS011;22159;55.736;38.048;2023-02-11T14:05:23;2.17;;;1.10;;
36105;SDS011;22159;55.736;38.048;2023-02-11T14:10:52;1.90;;;1.02;;
36105;SDS011;22159;55.736;38.048;2023-02-11T14:15:47;2.42;;;1.10;;
36105;SDS011;22159;55.736;38.048;2023-02-11T14:23:42;2.22;;;1.15;;
36105;SDS011;22159;55.736;38.048;2023-02-11T14:28:47;3.40;;;1.25;;
36105;SDS011;22159;55.736;38.048;2023-02-11T14:31:17;2.58;;;1.30;;
36105;SDS011;22159;55.736;38.048;2023-02-11T14:33:57;2.08;;;1.23;;
36105;SDS011;22159;55.736;38.048;2023-02-11T14:43:48;2.80;;;1.10;;
36105;SDS011;22159;55.736;38.048;2023-02-11T14:46:16;1.48;;;1.20;;
36105;SDS011;22159;55.736;38.048;2023-02-11T14:48:47;2.47;;;1.25;;
36105;SDS011;22159;55.736;38.048;2023-02-11T14:54:00;2.22;;;1.20;;
36105;SDS011;22159;55.736;38.048;2023-02-11T14:56:28;3.83;;;1.20;;
36105;SDS011;22159;55.736;38.048;2023-02-11T14:58:58;2.50;;;1.60;;
36105;SDS011;22159;55.736;38.048;2023-02-11T15:01:30;2.15;;;1.20;;
36105;SDS011;22159;55.736;38.048;2023-02-11T15:04:03;2.53;;;1.58;;
36105;SDS011;22159;55.736;38.048;2023-02-11T15:06:38;3.88;;;1.63;;
36105;SDS011;22159;55.736;38.048;2023-02-11T15:09:22;4.55;;;1.83;;
36105;SDS011;22159;55.736;38.048;2023-02-11T15:11:52;2.45;;;1.80;;
36105;SDS011;22159;55.736;38.048;2023-02-11T15:16:48;3.15;;;1.67;;
36105;SDS011;22159;55.736;38.048;2023-02-11T15:19:20;2.72;;;2.17;;
36105;SDS011;22159;55.736;38.048;2023-02-11T15:21:47;3.88;;;1.70;;
36105;SDS011;22159;55.736;38.048;2023-02-11T15:24:23;3.00;;;2.00;;
36105;SDS011;22159;55.736;38.048;2023-02-11T15:27:00;2.63;;;2.40;;
36105;SDS011;22159;55.736;38.048;2023-02-11T15:29:27;4.25;;;2.60;;
36105;SDS011;22159;55.736;38.048;2023-02-11T15:34:39;5.03;;;2.50;;
36105;SDS011;22159;55.736;38.048;2023-02-11T15:37:05;4.03;;;2.50;;
36105;SDS011;22159;55.736;38.048;2023-02-11T15:39:32;6.18;;;3.35;;
36105;SDS011;22159;55.736;38.048;2023-02-11T15:44:45;6.90;;;3.25;;
36105;SDS011;22159;55.736;38.048;2023-02-11T15:47:11;8.30;;;3.13;;
36105;SDS011;22159;55.736;38.048;2023-02-11T15:49:38;9.50;;;3.80;;
36105;SDS011;22159;55.736;38.048;2023-02-11T15:52:09;7.43;;;3.90;;
36105;SDS011;22159;55.736;38.048;2023-02-11T15:54:35;7.38;;;3.17;;
36105;SDS011;22159;55.736;38.048;2023-02-11T15:57:02;9.50;;;3.40;;
36105;SDS011;22159;55.736;38.048;2023-02-11T16:02:16;5.68;;;3.75;;
36105;SDS011;22159;55.736;38.048;2023-02-11T16:04:54;6.40;;;3.30;;
36105;SDS011;22159;55.736;38.048;2023-02-11T16:07:37;6.80;;;3.88;;
36105;SDS011;22159;55.736;38.048;2023-02-11T16:10:26;8.48;;;3.72;;
36105;SDS011;22159;55.736;38.048;2023-02-11T16:12:51;8.73;;;3.63;;
36105;SDS011;22159;55.736;38.048;2023-02-11T16:18:02;6.10;;;3.33;;
36105;SDS011;22159;55.736;38.048;2023-02-11T16:20:29;7.57;;;3.72;;
36105;SDS011;22159;55.736;38.048;2023-02-11T16:22:56;7.50;;;3.90;;
36105;SDS011;22159;55.736;38.048;2023-02-11T16:25:22;7.93;;;3.53;;
36105;SDS011;22159;55.736;38.048;2023-02-11T16:27:52;7.45;;;3.20;;
36105;SDS011;22159;55.736;38.048;2023-02-11T16:32:48;9.48;;;3.40;;
36105;SDS011;22159;55.736;38.048;2023-02-11T16:35:14;7.20;;;3.00;;
36105;SDS011;22159;55.736;38.048;2023-02-11T16:37:40;5.20;;;3.08;;
36105;SDS011;22159;55.736;38.048;2023-02-11T16:40:06;5.55;;;3.35;;
36105;SDS011;22159;55.736;38.048;2023-02-11T16:42:32;8.05;;;3.22;;
36105;SDS011;22159;55.736;38.048;2023-02-11T16:44:59;4.75;;;3.05;;
36105;SDS011;22159;55.736;38.048;2023-02-11T16:47:25;6.18;;;2.90;;
36105;SDS011;22159;55.736;38.048;2023-02-11T16:49:52;8.82;;;3.22;;
36105;SDS011;22159;55.736;38.048;2023-02-11T16:52:19;4.82;;;3.00;;
36105;SDS011;22159;55.736;38.048;2023-02-11T16:54:46;6.05;;;3.50;;
36105;SDS011;22159;55.736;38.048;2023-02-11T16:57:22;7.18;;;3.10;;
36105;SDS011;22159;55.736;38.048;2023-02-11T16:59:48;7.22;;;3.50;;
36105;SDS011;22159;55.736;38.048;2023-02-11T17:02:36;6.47;;;2.90;;
36105;SDS011;22159;55.736;38.048;2023-02-11T17:05:03;5.13;;;2.72;;
36105;SDS011;22159;55.736;38.048;2023-02-11T17:07:29;5.38;;;3.00;;
36105;SDS011;22159;55.736;38.048;2023-02-11T17:09:56;8.82;;;3.20;;
36105;SDS011;22159;55.736;38.048;2023-02-11T17:12:22;7.78;;;2.97;;
36105;SDS011;22159;55.736;38.048;2023-02-11T17:14:52;5.93;;;2.47;;
36105;SDS011;22159;55.736;38.048;2023-02-11T17:17:18;8.60;;;2.90;;
36105;SDS011;22159;55.736;38.048;2023-02-11T17:19:47;5.28;;;2.67;;
36105;SDS011;22159;55.736;38.048;2023-02-11T17:22:13;5.47;;;2.92;;
36105;SDS011;22159;55.736;38.048;2023-02-11T17:24:39;8.55;;;2.90;;